sensor_id;sensor_type;location;lat;lon;timestamp;temperature;humidity
6118;DHT22;3089;48.202;11.510;2023-12-04T00:00:19;-4.30;99.90
6118;DHT22;3089;48.202;11.510;2023-12-04T00:02:47;-4.30;99.90
6118;DHT22;3089;48.202;11.510;2023-12-04T00:05:15;-4.30;99.90
6118;DHT22;3089;48.202;11.510;2023-12-04T00:07:43;-4.30;99.90
6118;DHT22;3089;48.202;11.510;2023-12-04T00:10:11;-4.20;99.90
6118;DHT22;3089;48.202;11.510;2023-12-04T00:12:40;-4.30;99.90
6118;DHT22;3089;48.202;11.510;2023-12-04T00:15:09;-4.20;99.90
6118;DHT22;3089;48.202;11.510;2023-12-04T00:17:37;-4.30;99.90
6118;DHT22;3089;48.202;11.510;2023-12-04T00:20:08;-4.30;99.90
6118;DHT22;3089;48.202;11.510;2023-12-04T00:22:37;-4.30;99.90
6118;DHT22;3089;48.202;11.510;2023-12-04T00:25:06;-4.30;99.90
6118;DHT22;3089;48.202;11.510;2023-12-04T00:27:35;-4.30;99.90
6118;DHT22;3089;48.202;11.510;2023-12-04T00:30:05;-4.40;99.90
6118;DHT22;3089;48.202;11.510;2023-12-04T00:32:33;-4.40;99.90
6118;DHT22;3089;48.202;11.510;2023-12-04T00:35:01;-4.40;99.90
6118;DHT22;3089;48.202;11.510;2023-12-04T00:37:29;-4.30;99.90
6118;DHT22;3089;48.202;11.510;2023-12-04T00:39:57;-4.40;99.90
6118;DHT22;3089;48.202;11.510;2023-12-04T00:42:26;-4.40;99.90
6118;DHT22;3089;48.202;11.510;2023-12-04T00:44:54;-4.40;99.90
6118;DHT22;3089;48.202;11.510;2023-12-04T00:47:23;-4.40;99.90
6118;DHT22;3089;48.202;11.510;2023-12-04T00:49:51;-4.40;99.90
6118;DHT22;3089;48.202;11.510;2023-12-04T00:52:19;-4.40;99.90
6118;DHT22;3089;48.202;11.510;2023-12-04T00:54:47;-4.40;99.90
6118;DHT22;3089;48.202;11.510;2023-12-04T00:57:15;-4.50;99.90
6118;DHT22;3089;48.202;11.510;2023-12-04T00:59:43;-4.50;99.90
6118;DHT22;3089;48.202;11.510;2023-12-04T01:02:11;-4.50;99.90
6118;DHT22;3089;48.202;11.510;2023-12-04T01:04:41;-4.50;99.90
6118;DHT22;3089;48.202;11.510;2023-12-04T01:07:09;-4.50;99.90
6118;DHT22;3089;48.202;11.510;2023-12-04T01:09:37;-4.50;99.90
6118;DHT22;3089;48.202;11.510;2023-12-04T01:12:05;-4.50;99.90
6118;DHT22;3089;48.202;11.510;2023-12-04T01:14:33;-4.50;99.90
6118;DHT22;3089;48.202;11.510;2023-12-04T01:17:04;-4.60;99.90
6118;DHT22;3089;48.202;11.510;2023-12-04T01:19:33;-4.50;99.90
6118;DHT22;3089;48.202;11.510;2023-12-04T01:22:02;-4.60;99.90
6118;DHT22;3089;48.202;11.510;2023-12-04T01:24:30;-4.60;99.90
6118;DHT22;3089;48.202;11.510;2023-12-04T01:26:58;-4.60;99.90
6118;DHT22;3089;48.202;11.510;2023-12-04T01:29:26;-4.60;99.90
6118;DHT22;3089;48.202;11.510;2023-12-04T01:31:56;-4.50;99.90
6118;DHT22;3089;48.202;11.510;2023-12-04T01:34:24;-4.60;99.90
6118;DHT22;3089;48.202;11.510;2023-12-04T01:36:52;-4.60;99.90
6118;DHT22;3089;48.202;11.510;2023-12-04T01:39:22;-4.50;99.90
6118;DHT22;3089;48.202;11.510;2023-12-04T01:41:49;-4.70;99.90
6118;DHT22;3089;48.202;11.510;2023-12-04T01:44:18;-4.70;99.90
6118;DHT22;3089;48.202;11.510;2023-12-04T01:46:46;-4.80;99.90
6118;DHT22;3089;48.202;11.510;2023-12-04T01:49:14;-4.70;99.90
6118;DHT22;3089;48.202;11.510;2023-12-04T01:51:43;-4.60;99.90
6118;DHT22;3089;48.202;11.510;2023-12-04T01:54:11;-4.60;99.90
6118;DHT22;3089;48.202;11.510;2023-12-04T01:56:41;-4.60;99.90
6118;DHT22;3089;48.202;11.510;2023-12-04T01:59:10;-4.70;99.90
6118;DHT22;3089;48.202;11.510;2023-12-04T02:01:39;-4.70;99.90
6118;DHT22;3089;48.202;11.510;2023-12-04T02:04:07;-4.70;99.90
6118;DHT22;3089;48.202;11.510;2023-12-04T02:06:36;-4.70;99.90
6118;DHT22;3089;48.202;11.510;2023-12-04T02:09:04;-4.80;99.90
6118;DHT22;3089;48.202;11.510;2023-12-04T02:11:33;-4.80;99.90
6118;DHT22;3089;48.202;11.510;2023-12-04T02:14:02;-4.90;99.90
6118;DHT22;3089;48.202;11.510;2023-12-04T02:16:31;-4.80;99.90
6118;DHT22;3089;48.202;11.510;2023-12-04T02:19:01;-4.80;99.90
6118;DHT22;3089;48.202;11.510;2023-12-04T02:21:29;-4.80;99.90
6118;DHT22;3089;48.202;11.510;2023-12-04T02:23:59;-4.70;99.90
6118;DHT22;3089;48.202;11.510;2023-12-04T02:26:32;-4.80;99.90
6118;DHT22;3089;48.202;11.510;2023-12-04T02:29:07;-4.80;99.90
6118;DHT22;3089;48.202;11.510;2023-12-04T02:31:38;-4.80;99.90
6118;DHT22;3089;48.202;11.510;2023-12-04T02:34:07;-4.90;99.90
6118;DHT22;3089;48.202;11.510;2023-12-04T02:36:37;-4.90;99.90
6118;DHT22;3089;48.202;11.510;2023-12-04T02:39:07;-4.90;99.90
6118;DHT22;3089;48.202;11.510;2023-12-04T02:41:35;-4.90;99.90
6118;DHT22;3089;48.202;11.510;2023-12-04T02:44:03;-4.80;99.90
6118;DHT22;3089;48.202;11.510;2023-12-04T02:46:31;-4.90;99.90
6118;DHT22;3089;48.202;11.510;2023-12-04T02:49:00;-4.90;99.90
6118;DHT22;3089;48.202;11.510;2023-12-04T02:51:28;-4.80;99.90
6118;DHT22;3089;48.202;11.510;2023-12-04T02:53:56;-4.90;99.90
6118;DHT22;3089;48.202;11.510;2023-12-04T02:56:25;-4.80;99.90
6118;DHT22;3089;48.202;11.510;2023-12-04T02:58:53;-4.90;99.90
6118;DHT22;3089;48.202;11.510;2023-12-04T03:01:21;-4.90;99.90
6118;DHT22;3089;48.202;11.510;2023-12-04T03:03:49;-4.90;99.90
6118;DHT22;3089;48.202;11.510;2023-12-04T03:06:17;-4.80;99.90
6118;DHT22;3089;48.202;11.510;2023-12-04T03:08:46;-4.90;99.90
6118;DHT22;3089;48.202;11.510;2023-12-04T03:11:14;-5.00;99.90
6118;DHT22;3089;48.202;11.510;2023-12-04T03:13:43;-5.00;99.90
6118;DHT22;3089;48.202;11.510;2023-12-04T03:16:15;-5.00;99.90
6118;DHT22;3089;48.202;11.510;2023-12-04T03:18:43;-5.00;99.90
6118;DHT22;3089;48.202;11.510;2023-12-04T03:21:12;-4.90;99.90
6118;DHT22;3089;48.202;11.510;2023-12-04T03:23:40;-4.90;99.90
6118;DHT22;3089;48.202;11.510;2023-12-04T03:26:09;-5.00;99.90
6118;DHT22;3089;48.202;11.510;2023-12-04T03:28:38;-5.00;99.90
6118;DHT22;3089;48.202;11.510;2023-12-04T03:31:08;-5.10;99.90
6118;DHT22;3089;48.202;11.510;2023-12-04T03:33:36;-5.00;99.90
6118;DHT22;3089;48.202;11.510;2023-12-04T03:36:05;-5.00;99.90
6118;DHT22;3089;48.202;11.510;2023-12-04T03:38:33;-5.00;99.90
6118;DHT22;3089;48.202;11.510;2023-12-04T03:41:01;-5.00;99.90
6118;DHT22;3089;48.202;11.510;2023-12-04T03:43:29;-5.00;99.90
6118;DHT22;3089;48.202;11.510;2023-12-04T03:45:57;-5.00;99.90
6118;DHT22;3089;48.202;11.510;2023-12-04T03:48:26;-5.00;99.90
6118;DHT22;3089;48.202;11.510;2023-12-04T03:50:54;-5.00;99.90
6118;DHT22;3089;48.202;11.510;2023-12-04T03:53:23;-5.00;99.90
6118;DHT22;3089;48.202;11.510;2023-12-04T03:55:51;-5.00;99.90
6118;DHT22;3089;48.202;11.510;2023-12-04T03:58:19;-5.10;99.90
6118;DHT22;3089;48.202;11.510;2023-12-04T04:00:47;-5.00;99.90
6118;DHT22;3089;48.202;11.510;2023-12-04T04:03:15;-5.10;99.90
6118;DHT22;3089;48.202;11.510;2023-12-04T04:05:44;-5.10;99.90
6118;DHT22;3089;48.202;11.510;2023-12-04T04:08:12;-5.10;99.90
6118;DHT22;3089;48.202;11.510;2023-12-04T04:10:40;-5.20;99.90
6118;DHT22;3089;48.202;11.510;2023-12-04T04:13:08;-5.20;99.90
6118;DHT22;3089;48.202;11.510;2023-12-04T04:15:36;-5.20;99.90
6118;DHT22;3089;48.202;11.510;2023-12-04T04:18:04;-5.30;99.90
6118;DHT22;3089;48.202;11.510;2023-12-04T04:20:32;-5.20;99.90
6118;DHT22;3089;48.202;11.510;2023-12-04T04:23:02;-5.10;99.90
6118;DHT22;3089;48.202;11.510;2023-12-04T04:25:30;-5.00;99.90
6118;DHT22;3089;48.202;11.510;2023-12-04T04:27:58;-5.20;99.90
6118;DHT22;3089;48.202;11.510;2023-12-04T04:30:26;-5.20;99.90
6118;DHT22;3089;48.202;11.510;2023-12-04T04:32:54;-5.20;99.90
6118;DHT22;3089;48.202;11.510;2023-12-04T04:35:22;-5.20;99.90
6118;DHT22;3089;48.202;11.510;2023-12-04T04:37:51;-5.20;99.90
6118;DHT22;3089;48.202;11.510;2023-12-04T04:40:20;-5.20;99.90
6118;DHT22;3089;48.202;11.510;2023-12-04T04:42:48;-5.10;99.90
6118;DHT22;3089;48.202;11.510;2023-12-04T04:45:16;-5.10;99.90
6118;DHT22;3089;48.202;11.510;2023-12-04T04:47:44;-5.10;99.90
6118;DHT22;3089;48.202;11.510;2023-12-04T04:50:12;-5.10;99.90
6118;DHT22;3089;48.202;11.510;2023-12-04T04:52:40;-5.10;99.90
6118;DHT22;3089;48.202;11.510;2023-12-04T04:55:08;-5.00;99.90
6118;DHT22;3089;48.202;11.510;2023-12-04T04:57:38;-5.20;99.90
6118;DHT22;3089;48.202;11.510;2023-12-04T05:00:07;-5.30;99.90
6118;DHT22;3089;48.202;11.510;2023-12-04T05:02:35;-5.30;99.90
6118;DHT22;3089;48.202;11.510;2023-12-04T05:05:04;-5.20;99.90
6118;DHT22;3089;48.202;11.510;2023-12-04T05:07:32;-5.30;99.90
6118;DHT22;3089;48.202;11.510;2023-12-04T05:10:00;-5.30;99.90
6118;DHT22;3089;48.202;11.510;2023-12-04T05:12:32;-5.30;99.90
6118;DHT22;3089;48.202;11.510;2023-12-04T05:15:01;-5.30;99.90
6118;DHT22;3089;48.202;11.510;2023-12-04T05:17:30;-5.20;99.90
6118;DHT22;3089;48.202;11.510;2023-12-04T05:19:58;-5.20;99.90
6118;DHT22;3089;48.202;11.510;2023-12-04T05:22:26;-5.10;99.90
6118;DHT22;3089;48.202;11.510;2023-12-04T05:24:54;-5.20;99.90
6118;DHT22;3089;48.202;11.510;2023-12-04T05:27:22;-5.20;99.90
6118;DHT22;3089;48.202;11.510;2023-12-04T05:29:50;-5.10;99.90
6118;DHT22;3089;48.202;11.510;2023-12-04T05:32:20;-5.10;99.90
6118;DHT22;3089;48.202;11.510;2023-12-04T05:34:48;-5.20;99.90
6118;DHT22;3089;48.202;11.510;2023-12-04T05:37:16;-5.30;99.90
6118;DHT22;3089;48.202;11.510;2023-12-04T05:39:44;-5.30;99.90
6118;DHT22;3089;48.202;11.510;2023-12-04T05:42:13;-5.30;99.90
6118;DHT22;3089;48.202;11.510;2023-12-04T05:44:41;-5.30;99.90
6118;DHT22;3089;48.202;11.510;2023-12-04T05:47:09;-5.30;99.90
6118;DHT22;3089;48.202;11.510;2023-12-04T05:49:38;-5.20;99.90
6118;DHT22;3089;48.202;11.510;2023-12-04T05:52:06;-5.20;99.90
6118;DHT22;3089;48.202;11.510;2023-12-04T05:54:34;-5.10;99.90
6118;DHT22;3089;48.202;11.510;2023-12-04T05:57:03;-5.20;99.90
6118;DHT22;3089;48.202;11.510;2023-12-04T05:59:31;-5.30;99.90
6118;DHT22;3089;48.202;11.510;2023-12-04T06:01:59;-5.30;99.90
6118;DHT22;3089;48.202;11.510;2023-12-04T06:04:27;-5.30;99.90
6118;DHT22;3089;48.202;11.510;2023-12-04T06:06:57;-5.20;99.90
6118;DHT22;3089;48.202;11.510;2023-12-04T06:09:25;-5.20;99.90
6118;DHT22;3089;48.202;11.510;2023-12-04T06:11:53;-5.20;99.90
6118;DHT22;3089;48.202;11.510;2023-12-04T06:14:21;-5.40;99.90
6118;DHT22;3089;48.202;11.510;2023-12-04T06:16:48;-5.30;99.90
6118;DHT22;3089;48.202;11.510;2023-12-04T06:19:16;-5.30;99.90
6118;DHT22;3089;48.202;11.510;2023-12-04T06:21:45;-5.40;99.90
6118;DHT22;3089;48.202;11.510;2023-12-04T06:24:15;-5.40;99.90
6118;DHT22;3089;48.202;11.510;2023-12-04T06:26:47;-5.30;99.90
6118;DHT22;3089;48.202;11.510;2023-12-04T06:29:18;-5.20;99.90
6118;DHT22;3089;48.202;11.510;2023-12-04T06:31:47;-5.20;99.90
6118;DHT22;3089;48.202;11.510;2023-12-04T06:34:15;-6.20;99.90
6118;DHT22;3089;48.202;11.510;2023-12-04T06:36:44;-6.90;99.90
6118;DHT22;3089;48.202;11.510;2023-12-04T06:39:14;-6.40;99.90
6118;DHT22;3089;48.202;11.510;2023-12-04T06:41:45;-6.10;99.90
6118;DHT22;3089;48.202;11.510;2023-12-04T06:44:15;-5.70;99.90
6118;DHT22;3089;48.202;11.510;2023-12-04T06:46:47;-5.60;99.90
6118;DHT22;3089;48.202;11.510;2023-12-04T06:49:17;-5.60;99.90
6118;DHT22;3089;48.202;11.510;2023-12-04T06:51:46;-5.50;99.90
6118;DHT22;3089;48.202;11.510;2023-12-04T06:54:16;-5.40;99.90
6118;DHT22;3089;48.202;11.510;2023-12-04T06:56:47;-5.40;99.90
6118;DHT22;3089;48.202;11.510;2023-12-04T06:59:15;-5.40;99.90
6118;DHT22;3089;48.202;11.510;2023-12-04T07:01:43;-5.50;99.90
6118;DHT22;3089;48.202;11.510;2023-12-04T07:04:11;-5.50;99.90
6118;DHT22;3089;48.202;11.510;2023-12-04T07:06:40;-5.50;99.90
6118;DHT22;3089;48.202;11.510;2023-12-04T07:09:09;-5.40;99.90
6118;DHT22;3089;48.202;11.510;2023-12-04T07:11:38;-5.40;99.90
6118;DHT22;3089;48.202;11.510;2023-12-04T07:14:06;-5.40;99.90
6118;DHT22;3089;48.202;11.510;2023-12-04T07:16:39;-5.30;99.90
6118;DHT22;3089;48.202;11.510;2023-12-04T07:19:08;-5.30;99.90
6118;DHT22;3089;48.202;11.510;2023-12-04T07:21:36;-5.30;99.90
6118;DHT22;3089;48.202;11.510;2023-12-04T07:24:06;-5.30;99.90
6118;DHT22;3089;48.202;11.510;2023-12-04T07:26:34;-5.40;99.90
6118;DHT22;3089;48.202;11.510;2023-12-04T07:29:04;-5.30;99.90
6118;DHT22;3089;48.202;11.510;2023-12-04T07:31:32;-5.40;99.90
6118;DHT22;3089;48.202;11.510;2023-12-04T07:34:00;-5.40;99.90
6118;DHT22;3089;48.202;11.510;2023-12-04T07:36:29;-5.40;99.90
6118;DHT22;3089;48.202;11.510;2023-12-04T07:38:57;-5.40;99.90
6118;DHT22;3089;48.202;11.510;2023-12-04T07:41:25;-5.30;99.90
6118;DHT22;3089;48.202;11.510;2023-12-04T07:43:53;-5.20;99.90
6118;DHT22;3089;48.202;11.510;2023-12-04T07:46:23;-5.20;99.90
6118;DHT22;3089;48.202;11.510;2023-12-04T07:48:52;-5.30;99.90
6118;DHT22;3089;48.202;11.510;2023-12-04T07:51:22;-5.20;99.90
6118;DHT22;3089;48.202;11.510;2023-12-04T07:53:50;-5.30;99.90
6118;DHT22;3089;48.202;11.510;2023-12-04T07:56:18;-5.20;99.90
6118;DHT22;3089;48.202;11.510;2023-12-04T07:58:46;-5.20;99.90
6118;DHT22;3089;48.202;11.510;2023-12-04T08:01:15;-5.10;99.90
6118;DHT22;3089;48.202;11.510;2023-12-04T08:03:44;-5.10;99.90
6118;DHT22;3089;48.202;11.510;2023-12-04T08:06:13;-4.90;99.90
6118;DHT22;3089;48.202;11.510;2023-12-04T08:08:42;-4.70;99.90
6118;DHT22;3089;48.202;11.510;2023-12-04T08:11:10;-4.70;99.90
6118;DHT22;3089;48.202;11.510;2023-12-04T08:13:38;-4.70;99.90
6118;DHT22;3089;48.202;11.510;2023-12-04T08:16:13;-4.70;99.90
6118;DHT22;3089;48.202;11.510;2023-12-04T08:18:42;-4.80;99.90
6118;DHT22;3089;48.202;11.510;2023-12-04T08:21:11;-4.90;99.90
6118;DHT22;3089;48.202;11.510;2023-12-04T08:23:40;-5.00;99.90
6118;DHT22;3089;48.202;11.510;2023-12-04T08:26:08;-4.90;99.90
6118;DHT22;3089;48.202;11.510;2023-12-04T08:28:36;-4.90;99.90
6118;DHT22;3089;48.202;11.510;2023-12-04T08:31:08;-5.10;99.90
6118;DHT22;3089;48.202;11.510;2023-12-04T08:33:36;-5.10;99.90
6118;DHT22;3089;48.202;11.510;2023-12-04T08:36:05;-4.90;99.90
6118;DHT22;3089;48.202;11.510;2023-12-04T08:38:34;-4.80;99.90
6118;DHT22;3089;48.202;11.510;2023-12-04T08:41:03;-4.70;99.90
6118;DHT22;3089;48.202;11.510;2023-12-04T08:43:31;-4.60;99.90
6118;DHT22;3089;48.202;11.510;2023-12-04T08:45:59;-4.60;99.90
6118;DHT22;3089;48.202;11.510;2023-12-04T08:48:28;-4.50;99.90
6118;DHT22;3089;48.202;11.510;2023-12-04T08:50:57;-4.80;99.90
6118;DHT22;3089;48.202;11.510;2023-12-04T08:53:25;-4.70;99.90
6118;DHT22;3089;48.202;11.510;2023-12-04T08:55:55;-4.50;99.90
6118;DHT22;3089;48.202;11.510;2023-12-04T08:58:24;-4.60;99.90
6118;DHT22;3089;48.202;11.510;2023-12-04T09:00:52;-4.60;99.90
6118;DHT22;3089;48.202;11.510;2023-12-04T09:03:20;-4.50;99.90
6118;DHT22;3089;48.202;11.510;2023-12-04T09:05:58;-4.60;99.90
6118;DHT22;3089;48.202;11.510;2023-12-04T09:08:26;-4.70;99.90
6118;DHT22;3089;48.202;11.510;2023-12-04T09:11:07;-4.60;99.90
6118;DHT22;3089;48.202;11.510;2023-12-04T09:13:49;-4.50;99.90
6118;DHT22;3089;48.202;11.510;2023-12-04T09:16:17;-4.50;99.90
6118;DHT22;3089;48.202;11.510;2023-12-04T09:18:45;-4.60;99.90
6118;DHT22;3089;48.202;11.510;2023-12-04T09:21:14;-4.60;99.90
6118;DHT22;3089;48.202;11.510;2023-12-04T09:23:42;-4.60;99.90
6118;DHT22;3089;48.202;11.510;2023-12-04T09:26:17;-4.40;99.90
6118;DHT22;3089;48.202;11.510;2023-12-04T09:28:45;-4.50;99.90
6118;DHT22;3089;48.202;11.510;2023-12-04T09:31:15;-4.40;99.90
6118;DHT22;3089;48.202;11.510;2023-12-04T09:33:43;-4.20;99.90
6118;DHT22;3089;48.202;11.510;2023-12-04T09:36:11;-4.30;99.90
6118;DHT22;3089;48.202;11.510;2023-12-04T09:38:39;-4.20;99.90
6118;DHT22;3089;48.202;11.510;2023-12-04T09:41:09;-4.10;99.90
6118;DHT22;3089;48.202;11.510;2023-12-04T09:43:40;-4.10;99.90
6118;DHT22;3089;48.202;11.510;2023-12-04T09:46:09;-4.00;99.90
6118;DHT22;3089;48.202;11.510;2023-12-04T09:48:39;-4.10;99.90
6118;DHT22;3089;48.202;11.510;2023-12-04T09:51:09;-4.10;99.90
6118;DHT22;3089;48.202;11.510;2023-12-04T09:53:38;-4.10;99.90
6118;DHT22;3089;48.202;11.510;2023-12-04T09:56:08;-3.90;99.90
6118;DHT22;3089;48.202;11.510;2023-12-04T09:58:41;-3.80;99.90
6118;DHT22;3089;48.202;11.510;2023-12-04T10:01:11;-3.90;99.90
6118;DHT22;3089;48.202;11.510;2023-12-04T10:03:40;-3.80;99.90
6118;DHT22;3089;48.202;11.510;2023-12-04T10:06:11;-4.00;99.90
6118;DHT22;3089;48.202;11.510;2023-12-04T10:08:39;-3.90;99.90
6118;DHT22;3089;48.202;11.510;2023-12-04T10:11:08;-4.00;99.90
6118;DHT22;3089;48.202;11.510;2023-12-04T10:13:36;-4.00;99.90
6118;DHT22;3089;48.202;11.510;2023-12-04T10:16:36;-3.90;99.90
6118;DHT22;3089;48.202;11.510;2023-12-04T10:19:19;-3.80;99.90
6118;DHT22;3089;48.202;11.510;2023-12-04T10:21:49;-3.60;99.90
6118;DHT22;3089;48.202;11.510;2023-12-04T10:24:28;-3.70;99.90
6118;DHT22;3089;48.202;11.510;2023-12-04T10:26:57;-3.70;99.90
6118;DHT22;3089;48.202;11.510;2023-12-04T10:29:27;-3.60;99.90
6118;DHT22;3089;48.202;11.510;2023-12-04T10:31:59;-3.60;99.90
6118;DHT22;3089;48.202;11.510;2023-12-04T10:34:30;-3.50;99.90
6118;DHT22;3089;48.202;11.510;2023-12-04T10:37:02;-3.50;99.90
6118;DHT22;3089;48.202;11.510;2023-12-04T10:39:31;-3.50;99.90
6118;DHT22;3089;48.202;11.510;2023-12-04T10:42:00;-3.40;99.90
6118;DHT22;3089;48.202;11.510;2023-12-04T10:44:30;-3.30;99.90
6118;DHT22;3089;48.202;11.510;2023-12-04T10:47:00;-3.10;99.90
6118;DHT22;3089;48.202;11.510;2023-12-04T10:49:29;-3.10;99.90
6118;DHT22;3089;48.202;11.510;2023-12-04T10:51:58;-3.20;99.90
6118;DHT22;3089;48.202;11.510;2023-12-04T10:54:28;-3.20;99.90
6118;DHT22;3089;48.202;11.510;2023-12-04T10:57:00;-3.30;99.90
6118;DHT22;3089;48.202;11.510;2023-12-04T10:59:37;-3.90;99.90
6118;DHT22;3089;48.202;11.510;2023-12-04T11:02:12;-3.40;99.90
6118;DHT22;3089;48.202;11.510;2023-12-04T11:04:48;-3.20;99.90
6118;DHT22;3089;48.202;11.510;2023-12-04T11:07:19;-3.20;99.90
6118;DHT22;3089;48.202;11.510;2023-12-04T11:09:49;-3.30;99.90
6118;DHT22;3089;48.202;11.510;2023-12-04T11:12:20;-3.30;99.90
6118;DHT22;3089;48.202;11.510;2023-12-04T11:14:58;-3.40;99.90
6118;DHT22;3089;48.202;11.510;2023-12-04T11:17:32;-3.40;99.90
6118;DHT22;3089;48.202;11.510;2023-12-04T11:20:07;-3.30;99.90
6118;DHT22;3089;48.202;11.510;2023-12-04T11:22:38;-3.20;99.90
6118;DHT22;3089;48.202;11.510;2023-12-04T11:25:07;-3.30;99.90
6118;DHT22;3089;48.202;11.510;2023-12-04T11:27:36;-3.20;99.90
6118;DHT22;3089;48.202;11.510;2023-12-04T11:30:06;-3.20;99.90
6118;DHT22;3089;48.202;11.510;2023-12-04T11:32:45;-3.20;99.90
6118;DHT22;3089;48.202;11.510;2023-12-04T11:35:17;-3.10;99.90
6118;DHT22;3089;48.202;11.510;2023-12-04T11:37:47;-3.10;99.90
6118;DHT22;3089;48.202;11.510;2023-12-04T11:40:15;-3.00;99.90
6118;DHT22;3089;48.202;11.510;2023-12-04T11:42:44;-2.90;99.90
6118;DHT22;3089;48.202;11.510;2023-12-04T11:45:18;-2.90;99.90
6118;DHT22;3089;48.202;11.510;2023-12-04T11:47:55;-3.00;99.90
6118;DHT22;3089;48.202;11.510;2023-12-04T11:50:24;-3.00;99.90
6118;DHT22;3089;48.202;11.510;2023-12-04T11:52:53;-2.80;99.90
6118;DHT22;3089;48.202;11.510;2023-12-04T11:55:22;-2.80;99.90
6118;DHT22;3089;48.202;11.510;2023-12-04T11:57:52;-2.90;99.90
6118;DHT22;3089;48.202;11.510;2023-12-04T12:00:23;-2.90;99.90
6118;DHT22;3089;48.202;11.510;2023-12-04T12:03:05;-2.80;99.90
6118;DHT22;3089;48.202;11.510;2023-12-04T12:05:49;-2.70;99.90
6118;DHT22;3089;48.202;11.510;2023-12-04T12:08:20;-2.80;99.90
6118;DHT22;3089;48.202;11.510;2023-12-04T12:10:50;-2.70;99.90
6118;DHT22;3089;48.202;11.510;2023-12-04T12:13:20;-2.80;99.90
6118;DHT22;3089;48.202;11.510;2023-12-04T12:15:48;-2.80;99.90
6118;DHT22;3089;48.202;11.510;2023-12-04T12:18:21;-2.90;99.90
6118;DHT22;3089;48.202;11.510;2023-12-04T12:20:54;-2.90;99.90
6118;DHT22;3089;48.202;11.510;2023-12-04T12:23:24;-2.80;99.90
6118;DHT22;3089;48.202;11.510;2023-12-04T12:25:52;-2.80;99.90
6118;DHT22;3089;48.202;11.510;2023-12-04T12:28:22;-2.80;99.90
6118;DHT22;3089;48.202;11.510;2023-12-04T12:30:51;-2.80;99.90
6118;DHT22;3089;48.202;11.510;2023-12-04T12:33:21;-2.80;99.90
6118;DHT22;3089;48.202;11.510;2023-12-04T12:35:50;-2.60;99.90
6118;DHT22;3089;48.202;11.510;2023-12-04T12:38:29;-2.60;99.90
6118;DHT22;3089;48.202;11.510;2023-12-04T12:41:04;-2.60;99.90
6118;DHT22;3089;48.202;11.510;2023-12-04T12:43:34;-2.60;99.90
6118;DHT22;3089;48.202;11.510;2023-12-04T12:46:03;-2.60;99.90
6118;DHT22;3089;48.202;11.510;2023-12-04T12:48:35;-2.50;99.90
6118;DHT22;3089;48.202;11.510;2023-12-04T12:51:03;-2.50;99.90
6118;DHT22;3089;48.202;11.510;2023-12-04T12:53:32;-2.50;99.90
6118;DHT22;3089;48.202;11.510;2023-12-04T12:56:01;-2.50;99.90
6118;DHT22;3089;48.202;11.510;2023-12-04T12:58:29;-2.40;99.90
6118;DHT22;3089;48.202;11.510;2023-12-04T13:00:59;-3.00;99.90
6118;DHT22;3089;48.202;11.510;2023-12-04T13:03:29;-2.60;99.90
6118;DHT22;3089;48.202;11.510;2023-12-04T13:05:59;-2.40;99.90
6118;DHT22;3089;48.202;11.510;2023-12-04T13:08:27;-2.40;99.90
6118;DHT22;3089;48.202;11.510;2023-12-04T13:10:56;-2.40;99.90
6118;DHT22;3089;48.202;11.510;2023-12-04T13:13:24;-2.30;99.90
6118;DHT22;3089;48.202;11.510;2023-12-04T13:15:53;-2.40;99.90
6118;DHT22;3089;48.202;11.510;2023-12-04T13:18:23;-2.30;99.90
6118;DHT22;3089;48.202;11.510;2023-12-04T13:20:52;-3.30;99.90
6118;DHT22;3089;48.202;11.510;2023-12-04T13:23:22;-3.50;99.90
6118;DHT22;3089;48.202;11.510;2023-12-04T13:25:51;-3.60;99.90
6118;DHT22;3089;48.202;11.510;2023-12-04T13:28:21;-4.40;99.90
6118;DHT22;3089;48.202;11.510;2023-12-04T13:31:02;-3.80;99.90
6118;DHT22;3089;48.202;11.510;2023-12-04T13:33:30;-3.90;99.90
6118;DHT22;3089;48.202;11.510;2023-12-04T13:35:58;-3.90;99.90
6118;DHT22;3089;48.202;11.510;2023-12-04T13:38:28;-3.40;99.90
6118;DHT22;3089;48.202;11.510;2023-12-04T13:41:04;-2.20;99.90
6118;DHT22;3089;48.202;11.510;2023-12-04T13:43:56;-1.50;99.90
6118;DHT22;3089;48.202;11.510;2023-12-04T13:46:26;-1.30;99.90
6118;DHT22;3089;48.202;11.510;2023-12-04T13:48:56;-1.10;99.90
6118;DHT22;3089;48.202;11.510;2023-12-04T13:51:25;-0.90;99.90
6118;DHT22;3089;48.202;11.510;2023-12-04T13:53:54;-0.70;99.90
6118;DHT22;3089;48.202;11.510;2023-12-04T13:56:27;-0.60;99.90
6118;DHT22;3089;48.202;11.510;2023-12-04T13:59:09;-0.70;99.90
6118;DHT22;3089;48.202;11.510;2023-12-04T14:01:45;-0.60;99.90
6118;DHT22;3089;48.202;11.510;2023-12-04T14:04:13;-0.50;99.90
6118;DHT22;3089;48.202;11.510;2023-12-04T14:06:42;-0.60;99.90
6118;DHT22;3089;48.202;11.510;2023-12-04T14:09:12;-0.50;99.90
6118;DHT22;3089;48.202;11.510;2023-12-04T14:11:43;-0.30;99.90
6118;DHT22;3089;48.202;11.510;2023-12-04T14:14:12;-0.20;99.90
6118;DHT22;3089;48.202;11.510;2023-12-04T14:16:41;-0.30;99.90
6118;DHT22;3089;48.202;11.510;2023-12-04T14:19:10;-0.50;99.90
6118;DHT22;3089;48.202;11.510;2023-12-04T14:21:39;-0.40;99.90
6118;DHT22;3089;48.202;11.510;2023-12-04T14:24:07;-2.50;99.90
6118;DHT22;3089;48.202;11.510;2023-12-04T14:26:37;-2.50;99.90
6118;DHT22;3089;48.202;11.510;2023-12-04T14:29:05;-2.80;99.90
6118;DHT22;3089;48.202;11.510;2023-12-04T14:31:34;-2.50;99.90
6118;DHT22;3089;48.202;11.510;2023-12-04T14:34:03;-2.40;99.90
6118;DHT22;3089;48.202;11.510;2023-12-04T14:36:31;-2.40;99.90
6118;DHT22;3089;48.202;11.510;2023-12-04T14:38:59;-2.50;99.90
6118;DHT22;3089;48.202;11.510;2023-12-04T14:41:28;-2.70;99.90
6118;DHT22;3089;48.202;11.510;2023-12-04T14:43:58;-2.50;99.90
6118;DHT22;3089;48.202;11.510;2023-12-04T14:46:26;-2.40;99.90
6118;DHT22;3089;48.202;11.510;2023-12-04T14:48:55;-2.40;99.90
6118;DHT22;3089;48.202;11.510;2023-12-04T14:51:23;-2.40;99.90
6118;DHT22;3089;48.202;11.510;2023-12-04T14:53:53;-2.40;99.90
6118;DHT22;3089;48.202;11.510;2023-12-04T14:56:41;-2.40;99.90
6118;DHT22;3089;48.202;11.510;2023-12-04T14:59:39;-2.50;99.90
6118;DHT22;3089;48.202;11.510;2023-12-04T15:02:30;-2.50;99.90
6118;DHT22;3089;48.202;11.510;2023-12-04T15:05:30;-2.60;99.90
6118;DHT22;3089;48.202;11.510;2023-12-04T15:08:15;-2.60;99.90
6118;DHT22;3089;48.202;11.510;2023-12-04T15:11:12;-2.60;99.90
6118;DHT22;3089;48.202;11.510;2023-12-04T15:14:11;-2.60;99.90
6118;DHT22;3089;48.202;11.510;2023-12-04T15:16:58;-2.70;99.90
6118;DHT22;3089;48.202;11.510;2023-12-04T15:19:40;-2.70;99.90
6118;DHT22;3089;48.202;11.510;2023-12-04T15:22:24;-2.60;99.90
6118;DHT22;3089;48.202;11.510;2023-12-04T15:24:51;-2.70;99.90
6118;DHT22;3089;48.202;11.510;2023-12-04T15:27:19;-2.70;99.90
6118;DHT22;3089;48.202;11.510;2023-12-04T15:29:47;-2.70;99.90
6118;DHT22;3089;48.202;11.510;2023-12-04T15:32:16;-2.70;99.90
6118;DHT22;3089;48.202;11.510;2023-12-04T15:34:43;-2.60;99.90
6118;DHT22;3089;48.202;11.510;2023-12-04T15:37:11;-2.70;99.90
6118;DHT22;3089;48.202;11.510;2023-12-04T15:39:38;-2.70;99.90
6118;DHT22;3089;48.202;11.510;2023-12-04T15:42:07;-2.70;99.90
6118;DHT22;3089;48.202;11.510;2023-12-04T15:44:34;-2.70;99.90
6118;DHT22;3089;48.202;11.510;2023-12-04T15:47:02;-2.70;99.90
6118;DHT22;3089;48.202;11.510;2023-12-04T15:49:32;-2.80;99.90
6118;DHT22;3089;48.202;11.510;2023-12-04T15:51:59;-2.80;99.90
6118;DHT22;3089;48.202;11.510;2023-12-04T15:54:28;-2.70;99.90
6118;DHT22;3089;48.202;11.510;2023-12-04T15:56:59;-2.70;99.90
6118;DHT22;3089;48.202;11.510;2023-12-04T15:59:27;-2.80;99.90
6118;DHT22;3089;48.202;11.510;2023-12-04T16:01:56;-2.80;99.90